Anson, Texas
Current Conditions -  °F | °C
As of 12:58 PM on Wednesday 26 Nov 2014 (Local Time) from KDYS Reporting Station
Clear Clear  
Wind Chill: 57°   Ceiling: Unl
Heat Index: 57°   Visibility: 10mi
Dew Point: 34°   Wind: 13mph
Humidity: 42%   Direction: 20°NNE
Pressure: 30.23"   Gusts: NA
Location:  32.76°N, 99.9°W
Report Text: KDYS 261858Z AUTO 02011KT 10SM CLR 14/01 A3023 RMK AO2 SLP225 T01390010 $
Loading
Personal Weather Stations






























Interactive Weather Map New forecast layout! Learn more

10-Day Weather Forecast

Advertisements
Track Severe Weather on mobile